createdAt,value
2023-02-06T00:00:09.742Z,5.72
2023-02-06T00:02:38.765Z,6.15
2023-02-06T00:05:08.429Z,6.05
2023-02-06T00:07:37.346Z,6.57
2023-02-06T00:10:06.923Z,7.32
2023-02-06T00:12:38.214Z,7.13
2023-02-06T00:15:07.685Z,6.57
2023-02-06T00:17:37.161Z,8.25
2023-02-06T00:20:07.538Z,7.68
2023-02-06T00:22:36.987Z,7.22
2023-02-06T00:25:07.037Z,7.20
2023-02-06T00:27:37.587Z,7.43
2023-02-06T00:30:07.556Z,7.20
2023-02-06T00:32:36.999Z,7.05
2023-02-06T00:35:06.878Z,7.82
2023-02-06T00:37:35.878Z,6.50
2023-02-06T00:40:05.061Z,7.22
2023-02-06T00:42:34.572Z,7.75
2023-02-06T00:45:05.344Z,6.40
2023-02-06T00:47:35.590Z,7.75
2023-02-06T00:50:05.412Z,6.85
2023-02-06T00:52:34.738Z,7.00
2023-02-06T00:55:03.693Z,6.80
2023-02-06T00:57:32.711Z,6.75
2023-02-06T01:00:01.616Z,8.20
2023-02-06T01:02:32.719Z,6.85
2023-02-06T01:05:02.109Z,8.20
2023-02-06T01:07:31.785Z,7.10
2023-02-06T01:10:01.081Z,6.90
2023-02-06T01:12:30.070Z,8.05
2023-02-06T01:14:59.533Z,6.63
2023-02-06T01:17:28.844Z,7.93
2023-02-06T01:19:59.573Z,7.43
2023-02-06T01:22:29.330Z,7.38
2023-02-06T01:24:58.692Z,6.53
2023-02-06T01:27:27.647Z,7.43
2023-02-06T01:29:56.619Z,7.63
2023-02-06T01:32:25.910Z,7.95
2023-02-06T01:34:54.877Z,6.85
2023-02-06T01:37:25.349Z,6.60
2023-02-06T01:39:54.353Z,6.80
2023-02-06T01:42:24.383Z,7.70
2023-02-06T01:45:26.611Z,7.15
2023-02-06T01:48:00.451Z,7.25
2023-02-06T01:53:00.654Z,7.13
2023-02-06T01:55:29.643Z,6.97
2023-02-06T01:58:01.696Z,7.15
2023-02-06T02:00:31.356Z,8.68
2023-02-06T02:03:00.425Z,9.15
2023-02-06T02:05:29.399Z,7.68
2023-02-06T02:08:07.578Z,7.50
2023-02-06T02:10:37.595Z,7.35
2023-02-06T02:13:08.809Z,7.28
2023-02-06T02:15:47.087Z,7.82
2023-02-06T02:18:29.796Z,6.97
2023-02-06T02:21:46.311Z,6.80
2023-02-06T02:24:24.670Z,7.13
2023-02-06T02:27:27.974Z,6.68
2023-02-06T02:30:46.420Z,7.25
2023-02-06T02:34:00.945Z,7.28
2023-02-06T02:36:37.314Z,7.47
2023-02-06T02:39:16.097Z,7.70
2023-02-06T02:41:52.004Z,8.32
2023-02-06T02:44:30.793Z,7.43
2023-02-06T02:47:04.931Z,8.05
2023-02-06T02:49:37.921Z,7.63
2023-02-06T02:52:08.529Z,7.20
2023-02-06T02:54:37.796Z,8.40
2023-02-06T02:57:10.927Z,8.48
2023-02-06T02:59:44.822Z,7.07
2023-02-06T03:04:51.467Z,7.63
2023-02-06T03:07:33.523Z,7.10
2023-02-06T03:10:11.642Z,7.78
2023-02-06T03:12:47.348Z,7.65
2023-02-06T03:15:26.315Z,7.38
2023-02-06T03:18:01.011Z,8.23
2023-02-06T03:20:33.159Z,8.88
2023-02-06T03:23:05.159Z,8.05
2023-02-06T03:25:37.403Z,8.20
2023-02-06T03:28:08.748Z,7.45
2023-02-06T03:30:40.075Z,8.77
2023-02-06T03:33:12.104Z,7.20
2023-02-06T03:35:41.725Z,7.85
2023-02-06T03:38:12.233Z,8.27
2023-02-06T03:40:45.199Z,6.90
2023-02-06T03:43:18.873Z,6.38
2023-02-06T03:48:24.702Z,6.20
2023-02-06T03:50:56.783Z,6.75
2023-02-06T03:53:28.013Z,6.57
2023-02-06T03:56:02.230Z,6.03
2023-02-06T03:58:32.129Z,5.78
2023-02-06T04:01:02.202Z,6.25
2023-02-06T04:03:32.014Z,6.38
2023-02-06T04:06:02.006Z,6.15
2023-02-06T04:08:32.509Z,6.47
2023-02-06T04:11:01.603Z,6.28
2023-02-06T04:13:30.681Z,6.20
2023-02-06T04:15:59.672Z,6.78
2023-02-06T04:18:28.685Z,6.68
2023-02-06T04:20:57.699Z,7.13
2023-02-06T04:23:26.951Z,6.35
2023-02-06T04:25:57.313Z,6.75
2023-02-06T04:28:26.249Z,8.25
2023-02-06T04:30:55.544Z,7.95
2023-02-06T04:33:24.544Z,7.38
2023-02-06T04:35:53.815Z,7.63
2023-02-06T04:38:22.858Z,7.50
2023-02-06T04:40:51.879Z,6.72
2023-02-06T04:43:22.430Z,6.93
2023-02-06T04:45:51.550Z,7.50
2023-02-06T04:48:20.860Z,7.80
2023-02-06T04:50:50.788Z,6.70
2023-02-06T04:53:20.395Z,7.82
2023-02-06T04:55:49.706Z,6.70
2023-02-06T04:58:18.935Z,7.07
2023-02-06T05:00:50.471Z,6.22
2023-02-06T05:03:19.411Z,7.22
2023-02-06T05:05:48.466Z,6.95
2023-02-06T05:08:18.100Z,6.07
2023-02-06T05:10:47.312Z,6.57
2023-02-06T05:13:16.635Z,6.80
2023-02-06T05:15:46.553Z,6.55
2023-02-06T05:18:17.211Z,6.97
2023-02-06T05:20:46.694Z,6.97
2023-02-06T05:23:15.923Z,7.55
2023-02-06T05:25:45.378Z,7.43
2023-02-06T05:28:15.106Z,6.22
2023-02-06T05:30:44.901Z,6.50
2023-02-06T05:33:13.835Z,7.05
2023-02-06T05:35:44.194Z,7.47
2023-02-06T05:38:13.326Z,8.50
2023-02-06T05:40:42.453Z,7.13
2023-02-06T05:43:11.662Z,8.95
2023-02-06T05:45:41.111Z,7.50
2023-02-06T05:48:10.286Z,7.15
2023-02-06T05:50:39.561Z,7.53
2023-02-06T05:53:18.920Z,8.38
2023-02-06T05:55:48.383Z,6.25
2023-02-06T05:58:18.873Z,7.55
2023-02-06T06:00:47.820Z,7.65
2023-02-06T06:03:16.718Z,8.38
2023-02-06T06:05:46.483Z,9.65
2023-02-06T06:08:15.969Z,9.73
2023-02-06T06:10:46.337Z,6.57
2023-02-06T06:13:15.637Z,7.63
2023-02-06T06:15:45.184Z,7.97
2023-02-06T06:18:14.543Z,7.38
2023-02-06T06:20:43.639Z,8.40
2023-02-06T06:23:12.959Z,7.60
2023-02-06T06:25:42.158Z,7.22
2023-02-06T06:28:13.362Z,7.43
2023-02-06T06:30:42.621Z,6.75
2023-02-06T06:33:12.091Z,7.82
2023-02-06T06:35:42.337Z,7.25
2023-02-06T06:38:12.506Z,7.28
2023-02-06T06:40:45.563Z,9.50
2023-02-06T06:43:16.087Z,10.73
2023-02-06T06:45:45.361Z,8.57
2023-02-06T06:48:14.372Z,9.25
2023-02-06T06:50:43.881Z,9.13
2023-02-06T06:53:12.870Z,8.23
2023-02-06T06:55:42.197Z,9.20
2023-02-06T06:58:17.875Z,8.50
2023-02-06T07:00:48.314Z,6.88
2023-02-06T07:03:17.341Z,7.97
2023-02-06T07:05:47.440Z,10.10
2023-02-06T07:08:16.515Z,7.22
2023-02-06T07:10:45.824Z,7.38
2023-02-06T07:13:15.582Z,7.13
2023-02-06T07:15:45.012Z,7.47
2023-02-06T07:18:15.448Z,7.72
2023-02-06T07:20:45.005Z,6.88
2023-02-06T07:23:14.419Z,8.95
2023-02-06T07:25:44.241Z,8.50
2023-02-06T07:28:13.363Z,8.30
2023-02-06T07:30:42.923Z,8.05
2023-02-06T07:33:12.168Z,7.35
2023-02-06T07:35:43.978Z,7.25
2023-02-06T07:38:13.319Z,6.20
2023-02-06T07:40:45.331Z,6.35
2023-02-06T07:43:15.776Z,7.40
2023-02-06T07:45:45.944Z,5.93
2023-02-06T07:48:15.183Z,6.53
2023-02-06T07:50:46.737Z,5.65
2023-02-06T07:53:15.930Z,7.82
2023-02-06T07:55:45.673Z,6.03
2023-02-06T07:58:14.780Z,6.20
2023-02-06T08:00:45.860Z,6.50
2023-02-06T08:03:15.579Z,7.15
2023-02-06T08:05:46.051Z,7.20
2023-02-06T08:08:15.238Z,6.65
2023-02-06T08:10:44.348Z,6.25
2023-02-06T08:13:14.648Z,8.18
2023-02-06T08:15:45.082Z,5.82
2023-02-06T08:18:14.364Z,7.05
2023-02-06T08:20:43.661Z,5.68
2023-02-06T08:23:14.237Z,5.72
2023-02-06T08:25:44.046Z,6.20
2023-02-06T08:28:17.186Z,5.35
2023-02-06T08:30:47.208Z,5.95
2023-02-06T08:33:16.827Z,5.20
2023-02-06T08:35:45.959Z,6.95
2023-02-06T08:38:16.760Z,6.63
2023-02-06T08:40:46.052Z,6.38
2023-02-06T08:43:15.563Z,6.85
2023-02-06T08:45:48.891Z,6.25
2023-02-06T08:48:18.465Z,6.43
2023-02-06T08:50:50.243Z,6.68
2023-02-06T08:53:20.904Z,7.25
2023-02-06T08:55:49.992Z,8.25
2023-02-06T08:58:19.994Z,5.90
2023-02-06T09:00:48.927Z,5.68
2023-02-06T09:03:18.503Z,5.50
2023-02-06T09:05:47.494Z,5.90
2023-02-06T09:08:16.597Z,6.32
2023-02-06T09:10:47.376Z,6.35
2023-02-06T09:13:16.907Z,6.40
2023-02-06T09:15:52.923Z,6.07
2023-02-06T09:18:22.284Z,5.70
2023-02-06T09:20:51.440Z,6.25
2023-02-06T09:23:21.112Z,6.32
2023-02-06T09:25:52.011Z,7.13
2023-02-06T09:28:21.265Z,6.10
2023-02-06T09:30:50.671Z,6.32
2023-02-06T09:33:48.854Z,6.05
2023-02-06T09:36:19.604Z,6.07
2023-02-06T09:38:50.329Z,6.32
2023-02-06T09:41:29.031Z,6.55
2023-02-06T09:44:04.285Z,7.53
2023-02-06T09:46:37.137Z,6.53
2023-02-06T09:49:13.847Z,6.50
2023-02-06T09:51:57.631Z,5.97
2023-02-06T09:54:37.442Z,5.28
2023-02-06T09:57:12.554Z,6.38
2023-02-06T09:59:47.800Z,5.22
2023-02-06T10:02:36.056Z,6.60
2023-02-06T10:05:13.611Z,6.40
2023-02-06T10:08:01.729Z,6.30
2023-02-06T10:10:38.492Z,4.75
2023-02-06T10:13:17.401Z,5.68
2023-02-06T10:15:49.907Z,5.05
2023-02-06T10:18:28.960Z,5.45
2023-02-06T10:21:03.688Z,6.20
2023-02-06T10:23:40.757Z,6.30
2023-02-06T10:26:17.340Z,5.15
2023-02-06T10:28:51.099Z,5.38
2023-02-06T10:31:45.116Z,6.22
2023-02-06T10:34:32.149Z,6.13
2023-02-06T10:37:15.943Z,6.32
2023-02-06T10:40:09.681Z,6.45
2023-02-06T10:42:48.033Z,4.65
2023-02-06T10:45:33.060Z,4.88
2023-02-06T10:48:10.473Z,5.05
2023-02-06T10:50:45.620Z,5.30
2023-02-06T10:53:24.542Z,6.03
2023-02-06T10:55:56.686Z,6.03
2023-02-06T10:58:28.542Z,6.10
2023-02-06T11:01:00.589Z,6.35
2023-02-06T11:03:32.398Z,6.55
2023-02-06T11:06:03.950Z,6.13
2023-02-06T11:08:38.167Z,5.97
2023-02-06T11:11:20.511Z,5.00
2023-02-06T11:13:53.898Z,4.63
2023-02-06T11:16:27.684Z,5.93
2023-02-06T11:21:51.064Z,7.22
2023-02-06T11:24:24.558Z,6.35
2023-02-06T11:26:57.459Z,8.07
2023-02-06T11:29:31.830Z,4.83
2023-02-06T11:32:04.550Z,6.72
2023-02-06T11:34:35.821Z,6.13
2023-02-06T11:37:07.106Z,4.40
2023-02-06T11:39:38.000Z,4.60
2023-02-06T11:42:21.460Z,4.53
2023-02-06T11:44:52.237Z,4.55
2023-02-06T11:47:31.398Z,3.10
2023-02-06T11:50:23.591Z,3.75
2023-02-06T11:52:58.792Z,4.22
2023-02-06T11:55:30.080Z,4.68
2023-02-06T11:58:05.787Z,4.60
2023-02-06T12:00:38.247Z,4.95
2023-02-06T12:03:43.734Z,4.10
2023-02-06T12:06:17.226Z,5.88
2023-02-06T12:08:50.036Z,5.90
2023-02-06T12:11:26.977Z,5.37
2023-02-06T12:13:59.499Z,5.85
2023-02-06T12:16:30.286Z,6.15
2023-02-06T12:19:04.447Z,5.07
2023-02-06T12:21:44.813Z,4.78
2023-02-06T12:24:28.191Z,5.40
2023-02-06T12:27:01.853Z,6.00
2023-02-06T12:29:36.826Z,5.28
2023-02-06T12:32:15.157Z,6.13
2023-02-06T12:34:56.189Z,4.22
2023-02-06T12:37:37.914Z,4.70
2023-02-06T12:40:15.017Z,3.65
2023-02-06T12:42:48.651Z,4.80
2023-02-06T12:45:32.537Z,5.55
2023-02-06T12:48:10.084Z,4.68
2023-02-06T12:50:56.543Z,4.68
2023-02-06T12:53:31.721Z,5.00
2023-02-06T12:56:05.508Z,4.82
2023-02-06T13:01:34.755Z,5.28
2023-02-06T13:04:06.797Z,5.32
2023-02-06T13:06:45.784Z,4.22
2023-02-06T13:09:22.681Z,4.57
2023-02-06T13:11:52.523Z,4.40
2023-02-06T13:14:25.233Z,5.60
2023-02-06T13:16:58.309Z,4.80
2023-02-06T13:19:31.381Z,5.22
2023-02-06T13:22:24.532Z,4.80
2023-02-06T13:24:53.742Z,8.40
2023-02-06T13:27:25.928Z,5.28
2023-02-06T13:29:55.693Z,5.70
2023-02-06T13:32:43.274Z,4.22
2023-02-06T13:35:22.173Z,3.72
2023-02-06T13:38:12.527Z,4.03
2023-02-06T13:40:42.592Z,4.03
2023-02-06T13:43:18.732Z,5.03
2023-02-06T13:45:54.567Z,4.30
2023-02-06T13:48:52.281Z,4.35
2023-02-06T13:51:50.523Z,4.45
2023-02-06T13:54:55.545Z,4.75
2023-02-06T13:57:36.047Z,4.45
2023-02-06T14:00:13.438Z,4.55
2023-02-06T14:02:46.714Z,4.85
2023-02-06T14:05:20.703Z,6.22
2023-02-06T14:08:09.027Z,11.77
2023-02-06T14:11:00.174Z,6.32
2023-02-06T14:13:47.159Z,7.28
2023-02-06T14:16:33.661Z,6.63
2023-02-06T14:19:06.060Z,5.38
2023-02-06T14:21:46.908Z,5.28
2023-02-06T14:24:38.357Z,5.18
2023-02-06T14:27:23.804Z,4.85
2023-02-06T14:29:58.962Z,5.65
2023-02-06T14:33:15.385Z,5.57
2023-02-06T14:36:05.361Z,6.30
2023-02-06T14:39:11.780Z,6.88
2023-02-06T14:41:41.345Z,5.43
2023-02-06T14:44:16.964Z,4.88
2023-02-06T14:46:47.110Z,4.55
2023-02-06T14:49:20.071Z,3.97
2023-02-06T14:51:52.458Z,4.38
2023-02-06T14:54:34.215Z,3.85
2023-02-06T14:57:06.002Z,4.32
2023-02-06T14:59:36.943Z,5.78
2023-02-06T15:02:15.313Z,5.57
2023-02-06T15:04:49.048Z,6.53
2023-02-06T15:07:25.128Z,5.18
2023-02-06T15:10:00.736Z,6.05
2023-02-06T15:12:32.284Z,7.38
2023-02-06T15:15:16.328Z,4.63
2023-02-06T15:20:28.985Z,4.05
2023-02-06T15:23:16.632Z,5.30
2023-02-06T15:26:05.252Z,4.47
2023-02-06T15:28:38.127Z,5.05
2023-02-06T15:31:18.733Z,5.37
2023-02-06T15:33:51.478Z,4.97
2023-02-06T15:36:30.079Z,4.57
2023-02-06T15:39:00.573Z,4.88
2023-02-06T15:41:31.685Z,5.85
2023-02-06T15:44:04.278Z,4.90
2023-02-06T15:46:35.245Z,4.93
2023-02-06T15:49:04.550Z,6.25
2023-02-06T15:51:42.607Z,7.45
2023-02-06T15:54:27.338Z,5.80
2023-02-06T15:57:02.719Z,5.10
2023-02-06T15:59:35.666Z,5.90
2023-02-06T16:02:06.911Z,5.43
2023-02-06T16:04:39.714Z,6.18
2023-02-06T16:07:17.662Z,4.15
2023-02-06T16:10:10.821Z,5.03
2023-02-06T16:12:42.331Z,4.95
2023-02-06T16:15:27.591Z,5.68
2023-02-06T16:18:17.093Z,6.47
2023-02-06T16:20:47.736Z,5.20
2023-02-06T16:23:23.400Z,5.60
2023-02-06T16:26:03.299Z,6.05
2023-02-06T16:28:32.598Z,6.03
2023-02-06T16:31:04.743Z,6.88
2023-02-06T16:33:39.237Z,5.22
2023-02-06T16:36:10.582Z,5.20
2023-02-06T16:38:40.095Z,5.70
2023-02-06T16:41:25.948Z,7.68
2023-02-06T16:43:55.973Z,5.90
2023-02-06T16:46:26.123Z,6.82
2023-02-06T16:48:57.611Z,5.45
2023-02-06T16:51:32.131Z,5.10
2023-02-06T16:54:02.704Z,5.63
2023-02-06T16:56:33.156Z,5.80
2023-02-06T16:59:02.980Z,5.60
2023-02-06T17:01:33.038Z,5.82
2023-02-06T17:04:04.466Z,6.55
2023-02-06T17:07:20.108Z,5.22
2023-02-06T17:10:05.462Z,6.95
2023-02-06T17:12:36.369Z,5.43
2023-02-06T17:15:10.093Z,6.70
2023-02-06T17:17:41.590Z,6.03
2023-02-06T17:20:27.587Z,5.20
2023-02-06T17:22:59.745Z,5.00
2023-02-06T17:25:30.264Z,5.30
2023-02-06T17:28:02.579Z,5.68
2023-02-06T17:30:32.796Z,4.85
2023-02-06T17:33:07.284Z,5.07
2023-02-06T17:35:41.219Z,4.80
2023-02-06T17:38:12.062Z,5.07
2023-02-06T17:40:43.713Z,5.10
2023-02-06T17:43:13.033Z,5.75
2023-02-06T17:45:42.919Z,5.63
2023-02-06T17:48:26.306Z,6.88
2023-02-06T17:50:58.960Z,5.60
2023-02-06T17:53:28.176Z,7.28
2023-02-06T17:55:57.612Z,5.70
2023-02-06T17:58:28.034Z,4.97
2023-02-06T18:00:57.081Z,5.45
2023-02-06T18:03:29.614Z,6.03
2023-02-06T18:06:02.306Z,5.60
2023-02-06T18:08:32.654Z,4.60
2023-02-06T18:11:03.549Z,5.18
2023-02-06T18:13:35.064Z,5.20
2023-02-06T18:16:04.412Z,5.30
2023-02-06T18:18:33.604Z,5.20
2023-02-06T18:21:04.309Z,6.22
2023-02-06T18:23:34.198Z,5.72
2023-02-06T18:26:04.478Z,4.80
2023-02-06T18:28:36.234Z,4.97
2023-02-06T18:31:07.529Z,4.97
2023-02-06T18:33:37.703Z,5.88
2023-02-06T18:36:09.783Z,5.65
2023-02-06T18:38:40.632Z,5.68
2023-02-06T18:41:30.990Z,5.68
2023-02-06T18:44:01.088Z,4.87
2023-02-06T18:46:33.321Z,5.30
2023-02-06T18:49:03.390Z,6.07
2023-02-06T18:51:34.515Z,5.93
2023-02-06T18:54:04.860Z,6.55
2023-02-06T18:56:36.170Z,6.13
2023-02-06T18:59:40.818Z,6.18
2023-02-06T19:02:16.677Z,5.97
2023-02-06T19:04:47.215Z,6.25
2023-02-06T19:07:18.885Z,5.95
2023-02-06T19:09:48.440Z,5.15
2023-02-06T19:12:17.880Z,5.70
2023-02-06T19:14:47.192Z,5.93
2023-02-06T19:17:16.933Z,5.80
2023-02-06T19:19:46.626Z,5.40
2023-02-06T19:22:17.687Z,6.40
2023-02-06T19:24:47.081Z,5.68
2023-02-06T19:27:16.099Z,5.63
2023-02-06T19:29:45.540Z,7.07
2023-02-06T19:32:15.169Z,6.65
2023-02-06T19:34:45.355Z,7.78
2023-02-06T19:37:14.819Z,5.50
2023-02-06T19:39:46.059Z,6.47
2023-02-06T19:42:17.254Z,5.97
2023-02-06T19:44:46.840Z,6.82
2023-02-06T19:47:15.953Z,6.03
2023-02-06T19:49:45.364Z,6.57
2023-02-06T19:52:15.000Z,5.30
2023-02-06T19:54:48.020Z,4.95
2023-02-06T19:57:19.427Z,5.60
2023-02-06T19:59:49.451Z,6.20
2023-02-06T20:02:19.779Z,5.38
2023-02-06T20:04:49.349Z,6.90
2023-02-06T20:07:19.224Z,5.53
2023-02-06T20:09:51.244Z,5.40
2023-02-06T20:12:20.744Z,5.95
2023-02-06T20:14:49.946Z,5.72
2023-02-06T20:17:19.543Z,5.68
2023-02-06T20:19:48.979Z,5.88
2023-02-06T20:22:17.949Z,5.90
2023-02-06T20:24:47.415Z,5.88
2023-02-06T20:27:18.060Z,6.03
2023-02-06T20:29:48.176Z,6.25
2023-02-06T20:32:19.535Z,5.75
2023-02-06T20:34:49.424Z,6.30
2023-02-06T20:37:19.102Z,6.30
2023-02-06T20:39:49.238Z,6.20
2023-02-06T20:42:22.698Z,5.50
2023-02-06T20:44:52.960Z,5.82
2023-02-06T20:47:22.619Z,6.15
2023-02-06T20:49:52.495Z,6.15
2023-02-06T20:52:21.898Z,6.18
2023-02-06T20:54:51.059Z,5.45
2023-02-06T20:57:23.150Z,6.00
2023-02-06T20:59:52.772Z,5.68
2023-02-06T21:02:22.460Z,6.35
2023-02-06T21:04:52.456Z,5.05
2023-02-06T21:07:22.122Z,7.07
2023-02-06T21:09:52.447Z,6.28
2023-02-06T21:12:22.858Z,5.82
2023-02-06T21:14:52.541Z,6.05
2023-02-06T21:17:21.786Z,5.45
2023-02-06T21:19:51.239Z,5.75
2023-02-06T21:22:20.524Z,5.78
2023-02-06T21:24:49.991Z,5.22
2023-02-06T21:27:19.604Z,6.35
2023-02-06T21:29:50.299Z,6.55
2023-02-06T21:32:19.878Z,6.10
2023-02-06T21:34:49.250Z,6.00
2023-02-06T21:37:18.607Z,5.40
2023-02-06T21:39:47.971Z,6.93
2023-02-06T21:42:20.536Z,6.93
2023-02-06T21:44:50.972Z,7.13
2023-02-06T21:47:20.141Z,7.20
2023-02-06T21:49:49.558Z,7.40
2023-02-06T21:52:18.962Z,7.65
2023-02-06T21:54:48.085Z,6.65
2023-02-06T21:57:17.295Z,6.32
2023-02-06T21:59:46.786Z,6.95
2023-02-06T22:02:17.429Z,7.30
2023-02-06T22:04:47.123Z,7.20
2023-02-06T22:07:16.126Z,7.05
2023-02-06T22:09:45.256Z,6.65
2023-02-06T22:12:14.460Z,7.55
2023-02-06T22:14:43.719Z,7.30
2023-02-06T22:17:12.899Z,6.53
2023-02-06T22:19:43.787Z,6.68
2023-02-06T22:22:13.669Z,7.30
2023-02-06T22:24:44.291Z,7.53
2023-02-06T22:27:13.720Z,7.63
2023-02-06T22:29:43.124Z,6.70
2023-02-06T22:32:12.334Z,7.47
2023-02-06T22:34:41.585Z,7.65
2023-02-06T22:37:12.262Z,5.55
2023-02-06T22:39:41.403Z,7.28
2023-02-06T22:42:10.391Z,6.85
